Time;durP1;ratioP1;P1;durP2;ratioP2;P2;SDS_P1;SDS_P2;PMS_P1;PMS_P2;Temp;Humidity;BMP_temperature;BMP_pressure;BME280_temperature;BME280_humidity;BME280_pressure;Samples;Min_cycle;Max_cycle;Signal;HPM_P1;HPM_P2
2022/10/13 00:00:56;;;;;;;;;38.00;31.25;;;;;16.28;52.42;99305.84;4962797;28;103757;-41
2022/10/13 00:03:23;;;;;;;;;36.75;30.25;;;;;16.28;52.54;99305.84;4960394;28;102435;-43
2022/10/13 00:05:50;;;;;;;;;35.25;31.75;;;;;16.27;53.49;99305.00;4958943;28;103018;-41
2022/10/13 00:08:20;;;;;;;;;36.50;31.00;;;;;16.28;52.34;99300.38;4960044;28;104001;-42
2022/10/13 00:10:48;;;;;;;;;27.75;26.25;;;;;16.26;52.93;99300.59;4959462;28;102824;-42
2022/10/13 00:13:15;;;;;;;;;33.00;26.00;;;;;16.25;52.91;99301.69;4958832;28;102704;-43
2022/10/13 00:15:44;;;;;;;;;32.00;28.50;;;;;16.26;52.75;99302.50;4958904;28;102705;-43
2022/10/13 00:18:11;;;;;;;;;37.75;31.25;;;;;16.24;52.29;99297.28;4961016;28;104343;-43
2022/10/13 00:20:43;;;;;;;;;26.25;22.50;;;;;16.25;52.91;99300.84;4957134;28;102051;-43
2022/10/13 00:23:10;;;;;;;;;35.00;26.00;;;;;16.24;53.12;99296.44;4957194;28;102324;-43
2022/10/13 00:25:45;;;;;;;;;32.75;29.75;;;;;16.24;53.28;99293.72;4955589;28;102445;-42
2022/10/13 00:28:12;;;;;;;;;30.00;28.00;;;;;16.23;52.36;99297.47;4964546;28;104015;-43
2022/10/13 00:30:40;;;;;;;;;34.00;31.00;;;;;16.20;52.54;99293.31;4961144;28;105959;-42
2022/10/13 00:33:07;;;;;;;;;37.50;33.50;;;;;16.18;53.11;99294.56;4958843;28;102556;-43
2022/10/13 00:35:36;;;;;;;;;35.25;29.50;;;;;16.19;52.59;99296.25;4956493;28;102419;-42
2022/10/13 00:38:03;;;;;;;;;24.75;24.75;;;;;16.20;52.29;99292.47;4948480;28;104040;-42
2022/10/13 00:40:30;;;;;;;;;35.25;27.00;;;;;16.20;52.76;99289.75;4970171;28;102549;-43
2022/10/13 00:42:57;;;;;;;;;38.25;32.25;;;;;16.21;52.78;99283.25;4971618;28;102470;-42
2022/10/13 00:45:31;;;;;;;;;34.25;31.25;;;;;16.19;53.12;99285.34;4968461;28;102098;-46
2022/10/13 00:48:00;;;;;;;;;36.50;28.75;;;;;16.18;52.50;99280.94;4965370;28;104162;-41
2022/10/13 00:50:30;;;;;;;;;23.50;21.75;;;;;16.17;52.86;99281.97;4963676;28;102331;-42
2022/10/13 00:52:57;;;;;;;;;31.25;30.00;;;;;16.16;52.81;99285.78;4966308;28;102465;-43
2022/10/13 00:55:25;;;;;;;;;37.75;31.50;;;;;16.15;53.22;99278.66;4956311;28;102264;-42
2022/10/13 00:57:53;;;;;;;;;39.25;31.00;;;;;16.16;52.70;99274.88;4955308;28;103620;-41
2022/10/13 01:00:24;;;;;;;;;32.00;30.25;;;;;16.14;52.90;99283.28;4965312;28;102476;-43
2022/10/13 01:02:51;;;;;;;;;36.50;31.50;;;;;16.13;52.57;99275.28;4961496;28;102429;-42
2022/10/13 01:05:19;;;;;;;;;36.00;31.75;;;;;16.12;53.22;99274.44;4963655;28;103111;-42
2022/10/13 01:07:55;;;;;;;;;33.00;31.75;;;;;16.12;52.56;99276.38;4963978;28;108758;-43
2022/10/13 01:10:54;;;;;;;;;32.25;30.25;;;;;16.11;52.18;99275.53;4954555;28;103893;-42
2022/10/13 01:14:02;;;;;;;;;36.25;30.25;;;;;16.11;52.21;99269.25;4962583;28;110394;-42
2022/10/13 01:17:07;;;;;;;;;34.00;32.00;;;;;16.10;52.53;99270.28;4966644;28;102478;-41
2022/10/13 01:20:16;;;;;;;;;33.00;29.00;;;;;16.08;52.56;99267.78;4961051;28;108855;-41
2022/10/13 01:23:39;;;;;;;;;35.00;33.00;;;;;16.08;52.47;99254.97;4957817;28;102340;-41
2022/10/13 01:26:37;;;;;;;;;33.75;30.25;;;;;16.06;53.11;99259.81;4962588;28;102591;-42
2022/10/13 01:29:23;;;;;;;;;35.75;31.75;;;;;16.06;52.77;99259.81;4962100;28;102291;-42
2022/10/13 01:32:11;;;;;;;;;37.25;30.75;;;;;16.06;52.69;99259.00;4965947;28;108746;-41
2022/10/13 01:35:07;;;;;;;;;33.25;31.25;;;;;16.06;52.67;99259.81;4953041;28;102908;-44
2022/10/13 01:37:36;;;;;;;;;37.75;31.75;;;;;16.05;52.22;99252.69;4964138;28;102427;-42
2022/10/13 01:40:08;;;;;;;;;31.25;29.50;;;;;16.05;53.11;99249.13;4963000;28;102489;-42
2022/10/13 01:42:38;;;;;;;;;35.25;31.75;;;;;16.05;52.46;99251.84;4966708;28;105239;-42
2022/10/13 01:45:05;;;;;;;;;39.50;31.75;;;;;16.04;52.71;99248.28;4964627;28;102474;-42
2022/10/13 01:47:32;;;;;;;;;31.75;29.00;;;;;16.04;52.76;99242.00;4967022;28;102259;-41
2022/10/13 01:49:59;;;;;;;;;34.75;29.50;;;;;16.05;52.95;99240.94;4944260;28;104898;-41
2022/10/13 01:52:34;;;;;;;;;42.25;34.75;;;;;16.04;52.18;99240.09;4944753;28;104042;-41
2022/10/13 01:55:05;;;;;;;;;33.75;31.00;;;;;16.04;52.26;99234.66;4960699;28;102784;-42
2022/10/13 01:57:35;;;;;;;;;31.75;29.50;;;;;16.03;52.79;99243.03;4965111;28;102644;-41
2022/10/13 02:00:15;;;;;;;;;31.00;26.75;;;;;16.02;52.95;99236.78;4969167;28;102547;-42
2022/10/13 02:03:06;;;;;;;;;35.75;32.75;;;;;16.02;52.30;99231.31;4962940;28;105745;-42
2022/10/13 02:05:54;;;;;;;;;37.75;34.00;;;;;16.02;52.06;99235.94;4965094;28;103375;-41
2022/10/13 02:08:29;;;;;;;;;40.00;34.75;;;;;16.01;52.71;99240.56;4956654;28;102462;-41
2022/10/13 02:11:04;;;;;;;;;39.00;33.25;;;;;16.01;53.01;99231.53;4956523;28;103770;-41
2022/10/13 02:13:31;;;;;;;;;34.00;30.00;;;;;16.00;53.05;99227.13;4946502;28;104295;-42
2022/10/13 02:15:59;;;;;;;;;37.00;31.50;;;;;15.98;52.27;99227.38;4964956;28;102575;-41
2022/10/13 02:18:33;;;;;;;;;34.00;29.25;;;;;15.97;52.28;99220.22;4957029;28;102323;-43
2022/10/13 02:21:00;;;;;;;;;37.00;31.25;;;;;15.98;52.88;99218.34;4966875;28;102536;-41
2022/10/13 02:23:27;;;;;;;;;37.25;32.50;;;;;15.97;51.90;99212.03;4939722;28;104206;-41
2022/10/13 02:25:55;;;;;;;;;38.50;31.75;;;;;15.97;52.19;99212.03;4966330;28;102631;-42
2022/10/13 02:28:22;;;;;;;;;31.50;28.50;;;;;15.97;51.74;99212.03;4940501;28;102419;-41
2022/10/13 02:30:49;;;;;;;;;37.75;33.25;;;;;15.96;52.13;99212.25;4965374;28;102296;-42
2022/10/13 02:33:16;;;;;;;;;39.25;34.25;;;;;15.96;52.84;99207.63;4963988;28;108787;-42
2022/10/13 02:35:43;;;;;;;;;35.00;30.50;;;;;15.95;52.58;99205.97;4961937;28;102541;-41
2022/10/13 02:38:10;;;;;;;;;29.50;24.25;;;;;15.96;52.23;99210.38;4972963;28;102324;-41
2022/10/13 02:40:37;;;;;;;;;33.75;30.00;;;;;15.95;52.41;99227.78;4969166;28;102373;-41
2022/10/13 02:43:04;;;;;;;;;35.50;29.50;;;;;15.94;52.53;99214.38;4963025;28;104258;-42
2022/10/13 02:45:31;;;;;;;;;34.50;32.00;;;;;15.94;52.56;99223.38;4969248;28;102503;-41
2022/10/13 02:47:58;;;;;;;;;34.50;30.00;;;;;15.94;52.43;99215.19;4963743;28;102466;-42
2022/10/13 02:50:25;;;;;;;;;34.75;30.50;;;;;15.93;52.89;99213.56;4974859;27;103158;-40
2022/10/13 02:52:53;;;;;;;;;36.50;32.50;;;;;15.92;52.83;99209.16;4968165;28;104064;-41
2022/10/13 02:55:20;;;;;;;;;32.25;28.00;;;;;15.92;52.70;99209.16;4967754;28;102982;-41
2022/10/13 02:57:47;;;;;;;;;33.50;29.25;;;;;15.93;52.56;99215.44;4969176;28;102567;-42
2022/10/13 03:00:14;;;;;;;;;35.75;31.75;;;;;15.92;52.60;99227.41;4966298;28;102165;-42
2022/10/13 03:02:41;;;;;;;;;29.50;25.25;;;;;15.89;52.62;99225.97;4962595;28;104233;-42
2022/10/13 03:05:09;;;;;;;;;30.75;29.00;;;;;15.89;52.80;99217.78;4964750;28;102303;-43
2022/10/13 03:07:36;;;;;;;;;37.00;31.50;;;;;15.89;52.21;99208.75;4961336;28;102832;-41
2022/10/13 03:10:03;;;;;;;;;28.75;27.00;;;;;15.89;52.32;99206.88;4966276;28;102512;-41
2022/10/13 03:12:31;;;;;;;;;35.25;29.25;;;;;15.89;52.52;99208.75;4970643;28;104045;-43
2022/10/13 03:14:58;;;;;;;;;33.50;29.25;;;;;15.89;52.71;99208.75;4961399;28;102256;-41
2022/10/13 03:17:25;;;;;;;;;30.75;27.75;;;;;15.87;52.63;99206.25;4958769;28;104325;-41
2022/10/13 03:19:52;;;;;;;;;33.25;31.50;;;;;15.88;52.52;99213.38;4963282;28;102380;-41
2022/10/13 03:22:19;;;;;;;;;31.75;28.50;;;;;15.87;52.05;99208.13;4965227;28;103978;-41
2022/10/13 03:24:46;;;;;;;;;31.00;30.50;;;;;15.86;52.39;99210.00;4962994;28;102840;-41
2022/10/13 03:27:13;;;;;;;;;31.50;25.50;;;;;15.87;52.42;99206.25;4970136;28;103195;-42
2022/10/13 03:29:40;;;;;;;;;27.25;24.00;;;;;15.87;52.53;99210.84;4958989;28;104156;-41
2022/10/13 03:32:07;;;;;;;;;30.50;29.25;;;;;15.86;52.31;99215.47;4965714;28;104033;-41
2022/10/13 03:34:34;;;;;;;;;36.00;32.00;;;;;15.85;52.36;99211.06;4957439;27;103821;-41
2022/10/13 03:37:01;;;;;;;;;39.25;33.00;;;;;15.86;52.55;99215.47;4957130;28;102497;-41
2022/10/13 03:39:28;;;;;;;;;34.50;28.75;;;;;15.85;52.04;99207.53;4969541;28;102540;-42
2022/10/13 03:41:55;;;;;;;;;34.00;30.25;;;;;15.85;52.61;99202.88;4964727;28;110566;-41
2022/10/13 03:44:22;;;;;;;;;28.50;25.00;;;;;15.84;52.16;99206.69;4956128;28;103516;-41
2022/10/13 03:46:49;;;;;;;;;32.75;30.00;;;;;15.84;52.42;99209.41;4961406;28;102545;-42
2022/10/13 03:49:17;;;;;;;;;36.50;29.50;;;;;15.82;52.58;99208.78;4954139;28;103594;-42
2022/10/13 03:51:44;;;;;;;;;36.25;28.75;;;;;15.81;52.30;99211.72;4955807;28;104053;-42
2022/10/13 03:54:11;;;;;;;;;35.25;31.00;;;;;15.81;52.03;99201.66;4958897;28;102200;-42
2022/10/13 03:56:39;;;;;;;;;32.75;31.00;;;;;15.79;52.12;99198.31;4963551;28;102445;-42
2022/10/13 03:59:06;;;;;;;;;33.25;30.75;;;;;15.80;52.50;99194.56;4958740;28;102186;-42
2022/10/13 04:01:33;;;;;;;;;31.25;25.00;;;;;15.79;52.55;99189.31;4963242;28;104041;-48
2022/10/13 04:04:03;;;;;;;;;31.00;27.00;;;;;15.79;52.07;99181.13;4960529;28;104243;-41
2022/10/13 04:06:30;;;;;;;;;32.25;28.00;;;;;15.78;52.49;99185.75;4960042;28;102795;-42
2022/10/13 04:08:57;;;;;;;;;32.75;30.00;;;;;15.78;51.91;99185.75;4961527;28;102494;-41
2022/10/13 04:11:24;;;;;;;;;36.25;31.50;;;;;15.77;51.82;99184.06;4962019;28;104488;-41
2022/10/13 04:13:52;;;;;;;;;33.00;27.75;;;;;15.78;51.98;99184.91;4961268;28;102535;-42
2022/10/13 04:16:22;;;;;;;;;37.00;32.00;;;;;15.77;52.00;99178.59;4968921;28;102461;-42
2022/10/13 04:18:51;;;;;;;;;31.00;28.00;;;;;15.76;52.08;99182.38;4965375;28;102159;-42
2022/10/13 04:21:18;;;;;;;;;29.50;28.00;;;;;15.77;52.04;99184.06;4961617;28;108838;-41
2022/10/13 04:23:45;;;;;;;;;35.50;28.75;;;;;15.77;52.32;99178.59;4969979;28;103709;-42
2022/10/13 04:26:17;;;;;;;;;37.25;31.75;;;;;15.76;52.05;99176.13;4955082;28;102119;-42
2022/10/13 04:28:45;;;;;;;;;33.50;28.75;;;;;15.76;51.86;99185.09;4963584;28;102824;-43
2022/10/13 04:31:12;;;;;;;;;26.25;24.75;;;;;15.75;51.99;99185.34;4955924;28;104231;-42
2022/10/13 04:33:39;;;;;;;;;28.50;24.75;;;;;15.74;52.01;99189.97;4961977;28;102170;-42
2022/10/13 04:36:07;;;;;;;;;32.25;30.00;;;;;15.74;52.45;99197.31;4961293;28;102632;-41
2022/10/13 04:38:34;;;;;;;;;27.00;25.25;;;;;15.73;51.81;99193.75;4960889;28;102626;-41
2022/10/13 04:41:05;;;;;;;;;29.50;26.50;;;;;15.72;52.38;99186.59;4961448;28;105488;-41
2022/10/13 04:43:32;;;;;;;;;27.75;25.50;;;;;15.72;52.40;99202.97;4961838;28;102619;-41
2022/10/13 04:46:03;;;;;;;;;30.00;27.00;;;;;15.71;51.71;99195.88;4956756;28;102472;-41
2022/10/13 04:48:30;;;;;;;;;32.25;28.25;;;;;15.70;52.20;99194.19;4965201;28;102373;-41
2022/10/13 04:51:16;;;;;;;;;34.25;27.50;;;;;15.70;52.15;99190.63;4959514;28;110907;-43
2022/10/13 04:53:43;;;;;;;;;33.25;29.50;;;;;15.69;51.66;99197.97;4956500;28;104030;-41
2022/10/13 04:56:13;;;;;;;;;28.50;26.00;;;;;15.70;52.48;99194.19;4953944;28;102613;-42
2022/10/13 04:58:41;;;;;;;;;26.50;24.50;;;;;15.70;52.39;99186.00;4952150;27;102744;-41
2022/10/13 05:01:11;;;;;;;;;30.75;29.25;;;;;15.70;52.19;99194.19;4952917;28;104224;-41
2022/10/13 05:03:46;;;;;;;;;37.50;32.00;;;;;15.70;51.91;99194.19;4954962;28;102458;-41
2022/10/13 05:06:16;;;;;;;;;27.50;27.00;;;;;15.70;52.08;99193.34;4960526;27;103164;-41
2022/10/13 05:08:43;;;;;;;;;23.75;22.25;;;;;15.70;51.94;99194.19;4960120;28;103307;-43
2022/10/13 05:11:10;;;;;;;;;33.25;27.50;;;;;15.71;51.94;99200.47;4957417;28;103149;-41
2022/10/13 05:13:37;;;;;;;;;26.25;24.25;;;;;15.69;52.35;99197.97;4964432;28;102144;-41
2022/10/13 05:16:09;;;;;;;;;31.50;26.25;;;;;15.70;52.67;99206.97;4968620;28;103267;-41
2022/10/13 05:18:36;;;;;;;;;36.00;29.50;;;;;15.69;52.40;99200.69;4963027;28;102232;-41
2022/10/13 05:21:22;;;;;;;;;28.25;27.75;;;;;15.69;52.53;99194.41;4979357;28;104309;-41
2022/10/13 05:23:53;;;;;;;;;25.50;24.75;;;;;15.68;52.55;99196.28;4976572;28;102239;-42
2022/10/13 05:26:20;;;;;;;;;27.25;26.25;;;;;15.68;52.43;99193.56;4989178;28;102336;-42
2022/10/13 05:28:48;;;;;;;;;26.25;23.25;;;;;15.67;52.28;99191.88;4977576;28;102280;-41
2022/10/13 05:31:19;;;;;;;;;30.50;25.50;;;;;15.66;52.72;99195.69;4974460;28;104126;-41
2022/10/13 05:33:46;;;;;;;;;29.75;24.75;;;;;15.67;52.59;99201.97;4973443;28;102267;-41
2022/10/13 05:36:18;;;;;;;;;26.75;25.75;;;;;15.67;51.95;99200.06;4973818;28;102433;-42
2022/10/13 05:38:48;;;;;;;;;32.00;25.50;;;;;15.65;52.20;99202.19;4976805;28;102483;-41
2022/10/13 05:41:15;;;;;;;;;31.00;26.25;;;;;15.65;52.05;99201.34;4967589;28;104088;-42
2022/10/13 05:43:42;;;;;;;;;35.50;31.25;;;;;15.62;51.78;99199.91;4976046;28;102007;-41
2022/10/13 05:46:09;;;;;;;;;27.00;25.25;;;;;15.62;52.00;99208.91;4972245;28;102318;-42
2022/10/13 05:48:36;;;;;;;;;27.75;24.00;;;;;15.63;52.21;99205.13;4967682;28;102516;-41
2022/10/13 05:51:18;;;;;;;;;27.50;25.75;;;;;15.62;51.90;99203.44;4970540;28;104026;-42
2022/10/13 05:53:50;;;;;;;;;22.75;19.00;;;;;15.64;52.21;99195.06;4975068;28;103399;-41
2022/10/13 05:56:25;;;;;;;;;23.25;20.25;;;;;15.60;51.98;99200.13;4973138;28;102323;-42
2022/10/13 05:58:54;;;;;;;;;29.00;25.50;;;;;15.63;51.78;99201.56;4974099;28;102228;-41
2022/10/13 06:01:23;;;;;;;;;27.50;23.50;;;;;15.63;52.41;99204.28;4974749;28;108690;-41
2022/10/13 06:03:51;;;;;;;;;25.25;24.25;;;;;15.63;52.17;99198.84;4973850;28;102521;-41
2022/10/13 06:06:18;;;;;;;;;25.75;24.00;;;;;15.63;52.36;99198.84;4974798;28;102560;-42
2022/10/13 06:08:45;;;;;;;;;28.25;23.50;;;;;15.63;52.46;99190.66;4973417;28;102637;-41
2022/10/13 06:11:12;;;;;;;;;32.00;27.75;;;;;15.63;51.68;99191.50;4975307;28;104139;-41
2022/10/13 06:13:39;;;;;;;;;27.50;25.50;;;;;15.63;52.47;99190.66;4974900;28;102194;-41
2022/10/13 06:16:06;;;;;;;;;31.00;26.50;;;;;15.63;52.39;99196.09;4973151;28;102392;-41
2022/10/13 06:18:33;;;;;;;;;23.00;21.75;;;;;15.61;52.35;99188.16;4975794;28;104691;-42
2022/10/13 06:21:00;;;;;;;;;28.25;25.50;;;;;15.61;51.93;99190.88;4972828;28;104043;-41
2022/10/13 06:23:27;;;;;;;;;20.25;18.50;;;;;15.60;52.70;99189.22;4973256;28;102384;-41
2022/10/13 06:25:54;;;;;;;;;27.25;24.00;;;;;15.60;52.13;99194.66;4982155;28;102239;-41
2022/10/13 06:28:21;;;;;;;;;34.25;27.50;;;;;15.60;52.32;99191.94;4995957;28;103017;-41
2022/10/13 06:30:53;;;;;;;;;27.00;22.50;;;;;15.59;52.13;99195.72;4974495;28;107100;-42
2022/10/13 06:33:21;;;;;;;;;28.00;25.00;;;;;15.60;52.17;99193.81;4973204;28;102007;-42
2022/10/13 06:35:48;;;;;;;;;25.50;23.25;;;;;15.59;51.99;99186.69;4971663;28;102259;-41
2022/10/13 06:38:15;;;;;;;;;26.00;24.00;;;;;15.59;52.24;99200.31;4973810;28;102251;-41
2022/10/13 06:40:42;;;;;;;;;29.25;24.00;;;;;15.59;51.64;99192.16;4987199;28;104029;-41
2022/10/13 06:43:09;;;;;;;;;24.25;21.00;;;;;15.59;52.29;99194.88;4974355;28;102522;-41
2022/10/13 06:45:36;;;;;;;;;25.00;24.00;;;;;15.59;52.13;99195.72;4973486;28;103434;-41
2022/10/13 06:48:04;;;;;;;;;31.00;28.50;;;;;15.60;51.49;99191.09;4971868;28;102111;-41
2022/10/13 06:50:31;;;;;;;;;27.50;26.00;;;;;15.60;52.09;99191.09;4972859;28;104069;-41
2022/10/13 06:52:58;;;;;;;;;29.00;24.50;;;;;15.59;51.67;99184.81;4972283;28;102953;-41
2022/10/13 06:55:25;;;;;;;;;28.25;22.00;;;;;15.60;52.00;99185.66;4972404;28;102101;-41
2022/10/13 06:57:52;;;;;;;;;26.50;24.75;;;;;15.61;52.04;99190.06;4981377;28;102247;-42
2022/10/13 07:00:19;;;;;;;;;28.25;20.00;;;;;15.61;51.81;99179.16;4976639;28;108710;-42
2022/10/13 07:02:49;;;;;;;;;28.00;24.25;;;;;15.61;51.94;99190.06;4973794;28;102430;-41
2022/10/13 07:05:16;;;;;;;;;27.00;22.75;;;;;15.60;52.51;99186.47;4975528;28;102226;-41
2022/10/13 07:07:43;;;;;;;;;24.75;22.25;;;;;15.61;51.80;99190.06;4974925;28;102273;-41
2022/10/13 07:10:10;;;;;;;;;25.00;23.50;;;;;15.61;51.75;99188.16;4974441;28;104079;-41
2022/10/13 07:12:37;;;;;;;;;21.75;20.25;;;;;15.61;52.19;99188.16;4975090;28;102518;-41
2022/10/13 07:15:04;;;;;;;;;24.75;21.50;;;;;15.61;51.85;99181.88;4974865;28;102181;-42
2022/10/13 07:17:31;;;;;;;;;27.75;23.75;;;;;15.61;51.91;99174.53;4972777;28;102620;-42
2022/10/13 07:19:58;;;;;;;;;28.75;24.25;;;;;15.62;51.89;99175.38;4974383;28;106315;-41
2022/10/13 07:22:32;;;;;;;;;25.50;22.00;;;;;15.62;52.30;99175.38;4974295;28;102532;-41
2022/10/13 07:24:59;;;;;;;;;28.00;23.50;;;;;15.62;52.07;99181.63;4972600;28;102681;-41
2022/10/13 07:27:26;;;;;;;;;25.50;23.25;;;;;15.62;51.99;99172.66;4973336;28;102593;-43
2022/10/13 07:29:53;;;;;;;;;25.75;22.75;;;;;15.62;52.04;99178.91;4975368;28;104254;-42
2022/10/13 07:32:20;;;;;;;;;29.75;23.25;;;;;15.61;51.72;99163.63;4986803;28;103519;-43
2022/10/13 07:34:51;;;;;;;;;26.75;23.50;;;;;15.63;51.49;99171.56;4971800;28;102631;-41
2022/10/13 07:37:18;;;;;;;;;21.75;21.50;;;;;15.63;51.36;99166.13;4972532;28;102200;-42
2022/10/13 07:39:46;;;;;;;;;22.25;21.25;;;;;15.63;51.52;99169.69;4976075;28;104400;-42
2022/10/13 07:42:13;;;;;;;;;25.25;23.00;;;;;15.62;51.85;99159.03;4978263;28;102345;-41
2022/10/13 07:44:40;;;;;;;;;28.00;23.75;;;;;15.65;51.62;99164.03;4980109;28;103245;-42
2022/10/13 07:47:07;;;;;;;;;27.75;24.00;;;;;15.66;51.60;99164.84;4971778;28;102478;-41
2022/10/13 07:49:34;;;;;;;;;22.25;22.00;;;;;15.67;52.11;99164.63;4961736;28;104071;-41
2022/10/13 07:52:01;;;;;;;;;23.50;20.75;;;;;15.67;51.52;99161.91;4970706;28;102377;-41
2022/10/13 07:54:28;;;;;;;;;26.25;23.00;;;;;15.68;51.50;99158.13;4973214;28;102207;-41
2022/10/13 07:56:55;;;;;;;;;27.25;24.75;;;;;15.68;51.55;99158.13;4975574;28;102723;-42
2022/10/13 07:59:22;;;;;;;;;21.50;20.00;;;;;15.67;51.79;99145.53;4968705;28;104029;-42
2022/10/13 08:01:50;;;;;;;;;20.00;20.00;;;;;15.69;51.83;99145.31;4973406;28;102460;-41
2022/10/13 08:04:17;;;;;;;;;23.25;20.50;;;;;15.69;52.13;99145.31;4983923;28;102305;-43
2022/10/13 08:06:44;;;;;;;;;21.00;20.00;;;;;15.68;51.54;99146.38;4972620;28;110420;-41
2022/10/13 08:09:11;;;;;;;;;23.00;22.25;;;;;15.69;51.93;99148.88;4973071;28;104045;-41
2022/10/13 08:11:38;;;;;;;;;22.75;21.75;;;;;15.69;51.62;99142.59;4971598;28;102501;-41
2022/10/13 08:14:05;;;;;;;;;24.25;18.50;;;;;15.70;51.60;99145.13;4963450;28;102305;-41
2022/10/13 08:16:32;;;;;;;;;23.75;19.50;;;;;15.71;52.18;99148.69;4974536;28;102136;-41
2022/10/13 08:18:59;;;;;;;;;24.25;19.75;;;;;15.71;51.61;99145.94;4971279;28;104619;-41
2022/10/13 08:21:26;;;;;;;;;23.00;21.00;;;;;15.71;51.76;99141.34;4972632;28;102490;-41
2022/10/13 08:24:14;;;;;;;;;23.00;21.00;;;;;15.72;51.96;99139.41;4971371;28;102614;-42
2022/10/13 08:26:42;;;;;;;;;28.50;24.00;;;;;15.72;51.77;99131.25;4973739;28;102365;-43
2022/10/13 08:29:10;;;;;;;;;22.50;21.50;;;;;15.72;51.08;99126.63;4972446;28;103551;-42
2022/10/13 08:31:52;;;;;;;;;21.75;21.00;;;;;15.74;51.15;99134.59;4973319;28;102215;-43
2022/10/13 08:34:21;;;;;;;;;23.00;19.00;;;;;15.75;51.45;99131.66;4973934;28;102761;-42
2022/10/13 08:36:51;;;;;;;;;24.50;22.00;;;;;15.75;51.32;99131.66;4972100;28;103378;-41
2022/10/13 08:39:20;;;;;;;;;20.25;19.50;;;;;15.76;51.37;99138.75;4970634;28;103992;-41
2022/10/13 08:41:47;;;;;;;;;26.50;20.75;;;;;15.77;51.83;99128.69;4973688;28;102138;-42
2022/10/13 08:44:38;;;;;;;;;21.00;19.25;;;;;15.76;51.97;99119.66;4977775;28;102504;-43
2022/10/13 08:47:41;;;;;;;;;22.50;19.00;;;;;15.78;51.76;99119.47;4963700;28;102173;-41
2022/10/13 08:50:17;;;;;;;;;26.00;23.75;;;;;15.79;51.50;99116.53;4972383;28;104103;-41
2022/10/13 08:52:46;;;;;;;;;20.50;19.50;;;;;15.80;51.28;99123.66;4967674;28;105295;-41
2022/10/13 08:55:39;;;;;;;;;24.25;20.50;;;;;15.83;51.94;99120.47;4971876;28;102222;-41
2022/10/13 08:58:29;;;;;;;;;18.25;17.00;;;;;15.82;51.45;99109.78;4970822;28;102465;-41
2022/10/13 09:01:04;;;;;;;;;19.75;18.00;;;;;15.84;51.97;99119.41;4973109;28;108998;-41
2022/10/13 09:03:30;;;;;;;;;19.75;18.75;;;;;15.84;51.61;99116.69;4957291;28;103263;-41
2022/10/13 09:06:16;;;;;;;;;20.25;18.50;;;;;15.85;51.83;99118.34;4976244;28;102388;-41
2022/10/13 09:08:49;;;;;;;;;10.50;9.25;;;;;15.86;51.68;99120.00;4972825;28;102893;-41
2022/10/13 09:11:16;;;;;;;;;22.50;21.00;;;;;15.87;51.78;99113.50;4973319;28;104023;-42
2022/10/13 09:13:43;;;;;;;;;19.25;17.75;;;;;15.88;51.36;99114.34;4975290;28;102455;-42
2022/10/13 09:16:10;;;;;;;;;20.25;20.25;;;;;15.88;51.16;99115.19;4976051;28;102181;-42
2022/10/13 09:18:37;;;;;;;;;20.00;19.00;;;;;15.87;51.15;99108.06;4977289;28;103017;-41
2022/10/13 09:21:16;;;;;;;;;24.50;21.25;;;;;15.89;51.36;99116.88;4975192;28;104062;-41
2022/10/13 09:23:43;;;;;;;;;19.50;17.75;;;;;15.89;51.28;99111.41;4974317;28;102214;-41
2022/10/13 09:26:22;;;;;;;;;20.25;18.25;;;;;15.91;50.88;99112.00;4976835;28;102159;-41
2022/10/13 09:28:50;;;;;;;;;15.25;13.25;;;;;15.90;50.99;99110.31;4976308;28;102306;-41
2022/10/13 09:31:23;;;;;;;;;21.25;19.75;;;;;15.92;51.33;99107.38;4975189;28;104114;-41
2022/10/13 09:34:01;;;;;;;;;21.75;18.75;;;;;15.93;51.08;99101.72;4974854;28;102550;-42
2022/10/13 09:36:30;;;;;;;;;21.75;20.00;;;;;15.94;51.62;99097.91;4971958;28;102311;-41
2022/10/13 09:39:07;;;;;;;;;18.50;17.50;;;;;15.95;51.27;99088.69;4976033;28;102357;-41
2022/10/13 09:41:34;;;;;;;;;20.50;19.00;;;;;15.95;51.01;99098.75;4974332;28;104053;-41
2022/10/13 09:44:18;;;;;;;;;21.00;20.00;;;;;15.97;51.73;99092.03;4964565;28;102222;-41
2022/10/13 09:46:54;;;;;;;;;22.00;18.75;;;;;15.97;51.16;99089.31;4972029;28;102323;-41
2022/10/13 09:50:00;;;;;;;;;21.25;18.50;;;;;15.99;51.62;99095.34;4975786;28;102409;-42
2022/10/13 09:52:33;;;;;;;;;20.25;18.00;;;;;15.99;50.90;99084.44;4964514;28;108979;-42
2022/10/13 09:55:00;;;;;;;;;19.50;19.00;;;;;16.00;51.54;99082.56;4973345;28;102270;-41
2022/10/13 09:57:44;;;;;;;;;20.75;18.00;;;;;16.02;51.24;99080.44;4975455;28;103004;-41
2022/10/13 10:00:21;;;;;;;;;19.00;17.50;;;;;16.01;51.54;99076.88;4969963;28;102493;-42
2022/10/13 10:02:59;;;;;;;;;18.00;18.00;;;;;16.02;51.63;99078.56;4973913;28;104084;-42
2022/10/13 10:05:48;;;;;;;;;18.75;18.25;;;;;16.02;51.33;99078.56;4971489;28;102472;-41
2022/10/13 10:08:39;;;;;;;;;22.25;20.25;;;;;16.03;51.47;99080.22;4969964;28;102152;-41
2022/10/13 10:11:32;;;;;;;;;23.00;18.00;;;;;16.05;51.42;99082.72;4968229;28;102600;-41
2022/10/13 10:14:04;;;;;;;;;18.50;18.00;;;;;16.07;51.19;99080.63;4974083;28;104061;-41
2022/10/13 10:16:37;;;;;;;;;22.25;19.00;;;;;16.06;51.01;99068.88;4956828;28;102746;-41
2022/10/13 10:19:10;;;;;;;;;21.00;18.50;;;;;16.07;51.48;99065.06;4956921;28;102376;-41
2022/10/13 10:21:45;;;;;;;;;17.25;16.50;;;;;16.08;51.76;99049.53;4976839;28;102179;-41
2022/10/13 10:24:26;;;;;;;;;19.25;18.00;;;;;16.08;51.61;99053.09;4973663;28;104160;-42
2022/10/13 10:27:06;;;;;;;;;18.75;16.50;;;;;16.11;51.71;99053.72;4974118;28;102525;-41
2022/10/13 10:29:48;;;;;;;;;21.00;19.00;;;;;16.12;51.36;99050.75;4974418;28;102374;-42
2022/10/13 10:32:22;;;;;;;;;20.75;17.00;;;;;16.13;51.85;99046.97;4974498;28;105611;-41
2022/10/13 10:34:56;;;;;;;;;17.75;17.00;;;;;16.15;51.73;99044.00;4973885;28;104051;-42
2022/10/13 10:37:42;;;;;;;;;15.00;15.00;;;;;16.17;51.13;99050.91;4949387;28;102238;-42
2022/10/13 10:40:15;;;;;;;;;20.25;17.25;;;;;16.18;51.22;99038.94;4974379;28;102421;-42
2022/10/13 10:43:08;;;;;;;;;16.00;16.00;;;;;16.20;51.04;99042.28;4974164;28;102266;-42
2022/10/13 10:45:37;;;;;;;;;13.25;12.75;;;;;16.20;51.05;99036.81;4963064;28;108190;-41
2022/10/13 10:48:17;;;;;;;;;17.75;16.50;;;;;16.23;51.29;99046.44;4973262;28;102231;-41
2022/10/13 10:50:44;;;;;;;;;18.25;15.00;;;;;16.22;51.34;99031.97;4962708;28;102329;-43
2022/10/13 10:53:19;;;;;;;;;20.50;15.00;;;;;16.24;51.15;99038.03;4975695;28;102219;-43
2022/10/13 10:55:53;;;;;;;;;16.50;14.75;;;;;16.26;51.58;99029.59;4973886;28;104058;-41
2022/10/13 10:58:35;;;;;;;;;20.25;15.75;;;;;16.25;50.50;99023.34;4973856;28;102294;-41
2022/10/13 11:01:20;;;;;;;;;15.75;14.75;;;;;16.26;51.06;99033.16;4973374;28;102472;-42
2022/10/13 11:04:25;;;;;;;;;18.00;16.75;;;;;16.27;51.17;99023.09;4964115;28;102981;-41
2022/10/13 11:06:52;;;;;;;;;14.00;13.75;;;;;16.28;50.95;99016.56;4973879;28;108662;-42
2022/10/13 11:09:41;;;;;;;;;18.25;15.50;;;;;16.28;50.43;99014.69;4972395;28;102328;-42
2022/10/13 11:12:20;;;;;;;;;13.00;13.00;;;;;16.30;50.39;99014.47;4967714;28;102331;-41
2022/10/13 11:14:56;;;;;;;;;16.75;16.50;;;;;16.32;50.93;99009.59;4972972;28;102759;-42
2022/10/13 11:17:33;;;;;;;;;12.00;11.50;;;;;16.32;51.47;99004.16;4975566;28;108853;-41
2022/10/13 11:20:00;;;;;;;;;11.75;11.50;;;;;16.33;50.74;99003.09;4968901;28;102231;-41
2022/10/13 11:22:28;;;;;;;;;14.75;14.00;;;;;16.34;50.32;99005.59;4975079;28;102664;-41
2022/10/13 11:25:32;;;;;;;;;14.25;13.50;;;;;16.35;50.37;98996.31;4974891;28;102604;-41
2022/10/13 11:27:59;;;;;;;;;16.00;13.25;;;;;16.37;51.21;98990.66;4971363;28;108940;-41
2022/10/13 11:30:41;;;;;;;;;13.25;12.25;;;;;16.38;51.19;98992.31;4972807;28;102482;-41